createdAt,value
2019-01-30T00:00:04.560Z,-1.64
2019-01-30T00:02:32.537Z,-1.62
2019-01-30T00:05:00.506Z,-1.57
2019-01-30T00:07:28.195Z,-1.62
2019-01-30T00:09:56.135Z,-1.59
2019-01-30T00:12:24.102Z,-1.75
2019-01-30T00:14:52.076Z,-1.83
2019-01-30T00:17:20.040Z,-1.82
2019-01-30T00:19:48.012Z,-1.78
2019-01-30T00:22:15.979Z,-1.87
2019-01-30T00:24:43.949Z,-1.90
2019-01-30T00:27:11.918Z,-1.98
2019-01-30T00:29:39.897Z,-2.00
2019-01-30T00:32:07.505Z,-2.01
2019-01-30T00:34:35.137Z,-1.80
2019-01-30T00:37:03.081Z,-1.87
2019-01-30T00:39:31.049Z,-1.64
2019-01-30T00:41:58.670Z,-1.67
2019-01-30T00:44:26.583Z,-1.73
2019-01-30T00:46:54.203Z,-1.53
2019-01-30T00:49:22.110Z,-1.55
2019-01-30T00:51:50.081Z,-1.54
2019-01-30T00:54:17.711Z,-1.57
2019-01-30T00:56:45.339Z,-1.60
2019-01-30T00:59:13.276Z,-1.59
2019-01-30T01:01:41.259Z,-1.61
2019-01-30T01:04:08.887Z,-1.46
2019-01-30T01:06:36.522Z,-1.41
2019-01-30T01:09:06.075Z,-1.45
2019-01-30T01:11:34.042Z,-1.41
2019-01-30T01:14:02.008Z,-1.51
2019-01-30T01:16:29.880Z,-1.43
2019-01-30T01:18:57.505Z,-1.35
2019-01-30T01:21:25.406Z,-1.45
2019-01-30T01:23:53.115Z,-1.40
2019-01-30T01:26:21.063Z,-1.33
2019-01-30T01:28:49.008Z,-1.48
2019-01-30T01:31:16.872Z,-1.62
2019-01-30T01:33:44.853Z,-1.56
2019-01-30T01:36:12.817Z,-1.59
2019-01-30T01:38:40.451Z,-1.67
2019-01-30T01:41:08.077Z,-1.69
2019-01-30T01:43:35.710Z,-1.66
2019-01-30T01:46:03.346Z,-1.65
2019-01-30T01:48:31.232Z,-1.74
2019-01-30T01:50:59.220Z,-1.81
2019-01-30T01:53:27.174Z,-1.80
2019-01-30T01:55:55.137Z,-1.78
2019-01-30T01:58:23.111Z,-1.80
2019-01-30T02:00:51.084Z,-1.75
2019-01-30T02:03:19.053Z,-1.78
2019-01-30T02:05:46.688Z,-1.82
2019-01-30T02:08:14.578Z,-1.84
2019-01-30T02:10:42.550Z,-1.82
2019-01-30T02:13:10.536Z,-1.83
2019-01-30T02:15:38.168Z,-1.82
2019-01-30T02:18:08.476Z,-1.68
2019-01-30T02:20:35.656Z,-1.72
2019-01-30T02:23:03.625Z,-1.67
2019-01-30T02:25:31.615Z,-1.78
2019-01-30T02:28:00.876Z,-1.61
2019-01-30T02:30:28.701Z,-1.79
2019-01-30T02:32:56.756Z,-1.79
2019-01-30T02:35:24.380Z,-1.62
2019-01-30T02:37:51.998Z,-1.70
2019-01-30T02:40:19.919Z,-1.81
2019-01-30T02:42:47.903Z,-1.69
2019-01-30T02:45:15.528Z,-1.72
2019-01-30T02:47:43.422Z,-1.77
2019-01-30T02:50:11.040Z,-1.82
2019-01-30T02:52:38.959Z,-1.80
2019-01-30T02:55:06.896Z,-1.70
2019-01-30T02:57:34.792Z,-1.71
2019-01-30T03:00:02.418Z,-1.67
2019-01-30T03:02:30.326Z,-1.73
2019-01-30T03:04:58.296Z,-1.79
2019-01-30T03:07:26.265Z,-1.81
2019-01-30T03:09:53.883Z,-1.68
2019-01-30T03:12:21.786Z,-1.77
2019-01-30T03:14:49.778Z,-1.78
2019-01-30T03:17:17.398Z,-1.80
2019-01-30T03:19:45.287Z,-1.82
2019-01-30T03:22:13.260Z,-1.93
2019-01-30T03:24:41.247Z,-1.79
2019-01-30T03:27:08.867Z,-1.71
2019-01-30T03:29:36.490Z,-1.78
2019-01-30T03:32:04.426Z,-1.65
2019-01-30T03:34:32.039Z,-1.82
2019-01-30T03:36:59.956Z,-1.76
2019-01-30T03:39:27.919Z,-1.83
2019-01-30T03:41:55.892Z,-1.71
2019-01-30T03:44:23.770Z,-1.70
2019-01-30T03:46:51.729Z,-1.72
2019-01-30T03:49:19.699Z,-1.69
2019-01-30T03:51:47.326Z,-1.64
2019-01-30T03:54:14.960Z,-1.57
2019-01-30T03:56:42.887Z,-1.56
2019-01-30T03:59:10.506Z,-1.56
2019-01-30T04:01:38.418Z,-1.62
2019-01-30T04:04:06.046Z,-1.56
2019-01-30T04:06:33.948Z,-1.49
2019-01-30T04:09:01.922Z,-1.48
2019-01-30T04:11:29.884Z,-1.44
2019-01-30T04:14:00.586Z,-1.38
2019-01-30T04:16:27.177Z,-1.43
2019-01-30T04:18:55.130Z,-1.43
2019-01-30T04:21:22.763Z,-1.45
2019-01-30T04:23:50.377Z,-1.48
2019-01-30T04:26:18.322Z,-1.43
2019-01-30T04:28:45.953Z,-1.44
2019-01-30T04:31:13.839Z,-1.47
2019-01-30T04:33:41.710Z,-1.46
2019-01-30T04:36:09.683Z,-1.47
2019-01-30T04:38:37.296Z,-1.53
2019-01-30T04:41:05.234Z,-1.54
2019-01-30T04:43:32.860Z,-1.47
2019-01-30T04:46:00.843Z,-1.47
2019-01-30T04:48:28.816Z,-1.51
2019-01-30T04:50:56.786Z,-1.53
2019-01-30T04:53:24.754Z,-1.61
2019-01-30T04:55:52.765Z,-1.53
2019-01-30T04:58:20.357Z,-1.49
2019-01-30T05:00:48.258Z,-1.51
2019-01-30T05:03:16.226Z,-1.60
2019-01-30T05:05:44.219Z,-1.58
2019-01-30T05:08:11.836Z,-1.74
2019-01-30T05:10:39.823Z,-1.73
2019-01-30T05:13:07.796Z,-1.78
2019-01-30T05:15:35.763Z,-1.76
2019-01-30T05:18:03.399Z,-1.77
2019-01-30T05:20:31.007Z,-1.83
2019-01-30T05:22:58.953Z,-1.87
2019-01-30T05:25:26.936Z,-1.88
2019-01-30T05:27:54.897Z,-1.84
2019-01-30T05:30:22.527Z,-1.87
2019-01-30T05:32:50.155Z,-1.75
2019-01-30T05:35:17.841Z,-1.89
2019-01-30T05:37:45.758Z,-1.82
2019-01-30T05:40:13.362Z,-1.92
2019-01-30T05:42:41.277Z,-2.00
2019-01-30T05:45:08.893Z,-1.98
2019-01-30T05:47:36.815Z,-2.06
2019-01-30T05:50:04.781Z,-1.98
2019-01-30T05:52:32.745Z,-1.97
2019-01-30T05:55:00.366Z,-1.86
2019-01-30T05:57:27.999Z,-1.91
2019-01-30T05:59:55.935Z,-1.86
2019-01-30T06:02:23.912Z,-1.94
2019-01-30T06:04:51.534Z,-1.86
2019-01-30T06:07:19.441Z,-1.87
2019-01-30T06:09:47.410Z,-1.92
2019-01-30T06:12:15.032Z,-2.00
2019-01-30T06:14:42.938Z,-1.97
2019-01-30T06:17:11.033Z,-1.83
2019-01-30T06:19:38.601Z,-1.85
2019-01-30T06:22:06.535Z,-1.81
2019-01-30T06:24:34.164Z,-1.79
2019-01-30T06:27:01.789Z,-1.82
2019-01-30T06:29:29.729Z,-1.80
2019-01-30T06:31:57.351Z,-1.80
2019-01-30T06:34:24.987Z,-1.84
2019-01-30T06:36:52.925Z,-1.77
2019-01-30T06:39:20.892Z,-1.79
2019-01-30T06:41:48.867Z,-1.74
2019-01-30T06:44:16.829Z,-1.71
2019-01-30T06:46:44.805Z,-1.80
2019-01-30T06:49:12.677Z,-1.78
2019-01-30T06:51:40.641Z,-1.86
2019-01-30T06:54:08.506Z,-1.86
2019-01-30T06:56:36.477Z,-1.91
2019-01-30T06:59:04.448Z,-1.89
2019-01-30T07:01:32.486Z,-1.90
2019-01-30T07:04:00.393Z,-1.91
2019-01-30T07:06:28.373Z,-1.82
2019-01-30T07:08:55.987Z,-1.88
2019-01-30T07:11:23.689Z,-1.90
2019-01-30T07:13:51.654Z,-1.81
2019-01-30T07:16:19.621Z,-1.84
2019-01-30T07:18:47.249Z,-1.77
2019-01-30T07:21:14.859Z,-1.80
2019-01-30T07:23:42.486Z,-1.75
2019-01-30T07:26:10.370Z,-1.71
2019-01-30T07:28:38.337Z,-1.70
2019-01-30T07:31:06.206Z,-1.68
2019-01-30T07:33:34.179Z,-1.64
2019-01-30T07:36:01.812Z,-1.64
2019-01-30T07:38:29.440Z,-1.58
2019-01-30T07:40:58.387Z,-1.52
2019-01-30T07:43:26.362Z,-1.56
2019-01-30T07:45:53.977Z,-1.49
2019-01-30T07:48:21.895Z,-1.48
2019-01-30T07:50:49.501Z,-1.40
2019-01-30T07:53:17.417Z,-1.39
2019-01-30T07:55:45.041Z,-1.36
2019-01-30T07:58:12.958Z,-1.37
2019-01-30T08:00:40.921Z,-1.38
2019-01-30T08:03:08.544Z,-1.29
2019-01-30T08:05:36.467Z,-1.25
2019-01-30T08:08:04.400Z,-1.24
2019-01-30T08:10:32.289Z,-1.21
2019-01-30T08:13:00.263Z,-1.20
2019-01-30T08:15:28.233Z,-1.14
2019-01-30T08:17:55.867Z,-1.06
2019-01-30T08:20:23.758Z,-1.03
2019-01-30T08:22:51.539Z,-0.99
2019-01-30T08:25:19.931Z,-0.90
2019-01-30T08:27:47.890Z,-0.83
2019-01-30T08:30:22.284Z,-0.82
2019-01-30T08:32:45.461Z,-0.71
2019-01-30T08:35:13.159Z,-0.65
2019-01-30T08:37:41.081Z,-0.59
2019-01-30T08:40:09.046Z,-0.57
2019-01-30T08:42:36.702Z,-0.56
2019-01-30T08:45:04.327Z,-0.50
2019-01-30T08:47:31.951Z,-0.39
2019-01-30T08:49:59.903Z,-0.32
2019-01-30T08:52:27.879Z,-0.24
2019-01-30T08:54:55.839Z,-0.12
2019-01-30T08:57:23.469Z,-0.08
2019-01-30T08:59:51.370Z,-0.05
2019-01-30T09:02:21.062Z,0.07
2019-01-30T09:04:48.300Z,0.16
2019-01-30T09:07:16.203Z,0.25
2019-01-30T09:09:44.086Z,0.36
2019-01-30T09:12:12.036Z,0.50
2019-01-30T09:14:39.924Z,0.62
2019-01-30T09:17:08.728Z,0.58
2019-01-30T09:19:36.425Z,0.67
2019-01-30T09:22:04.042Z,0.72
2019-01-30T09:24:31.658Z,0.91
2019-01-30T09:26:59.546Z,0.91
2019-01-30T09:29:27.528Z,1.10
2019-01-30T09:31:55.140Z,0.88
2019-01-30T09:34:23.072Z,0.92
2019-01-30T09:36:51.017Z,1.12
2019-01-30T09:39:19.003Z,1.13
2019-01-30T09:41:46.956Z,1.01
2019-01-30T09:44:14.936Z,0.98
2019-01-30T09:46:42.556Z,0.98
2019-01-30T09:49:10.189Z,0.93
2019-01-30T09:51:38.191Z,1.11
2019-01-30T09:54:05.829Z,1.28
2019-01-30T09:56:33.507Z,1.16
2019-01-30T09:59:01.080Z,1.16
2019-01-30T10:01:28.972Z,1.12
2019-01-30T10:03:56.597Z,1.22
2019-01-30T10:06:24.213Z,1.43
2019-01-30T10:08:52.166Z,1.43
2019-01-30T10:11:20.134Z,1.42
2019-01-30T10:13:48.104Z,1.63
2019-01-30T10:16:15.971Z,1.50
2019-01-30T10:18:43.597Z,1.64
2019-01-30T10:21:11.213Z,1.68
2019-01-30T10:23:38.833Z,1.72
2019-01-30T10:26:06.447Z,1.85
2019-01-30T10:28:34.384Z,2.09
2019-01-30T10:31:02.251Z,2.07
2019-01-30T10:33:30.224Z,2.06
2019-01-30T10:35:57.851Z,2.14
2019-01-30T10:38:25.533Z,2.15
2019-01-30T10:40:53.159Z,2.21
2019-01-30T10:43:20.787Z,2.40
2019-01-30T10:45:48.398Z,2.15
2019-01-30T10:48:16.302Z,2.34
2019-01-30T10:50:43.909Z,2.27
2019-01-30T10:53:11.828Z,2.30
2019-01-30T10:55:39.448Z,2.31
2019-01-30T10:58:07.353Z,2.29
2019-01-30T11:00:35.043Z,2.25
2019-01-30T11:03:02.993Z,2.18
2019-01-30T11:05:30.609Z,2.36
2019-01-30T11:07:58.533Z,2.56
2019-01-30T11:10:26.493Z,2.34
2019-01-30T11:12:54.118Z,2.56
2019-01-30T11:15:21.741Z,2.76
2019-01-30T11:17:49.366Z,2.62
2019-01-30T11:20:16.997Z,2.54
2019-01-30T11:22:44.904Z,2.72
2019-01-30T11:25:12.876Z,2.52
2019-01-30T11:27:40.844Z,2.77
2019-01-30T11:30:08.811Z,2.87
2019-01-30T11:32:36.692Z,2.69
2019-01-30T11:35:04.647Z,2.62
2019-01-30T11:37:32.336Z,2.72
2019-01-30T11:40:00.284Z,2.88
2019-01-30T11:42:28.252Z,2.78
2019-01-30T11:44:56.213Z,2.73
2019-01-30T11:47:24.089Z,2.74
2019-01-30T11:49:52.079Z,2.68
2019-01-30T11:52:20.029Z,2.73
2019-01-30T11:54:47.997Z,2.94
2019-01-30T11:57:15.884Z,2.86
2019-01-30T11:59:43.840Z,2.87
2019-01-30T12:02:11.699Z,2.98
2019-01-30T12:04:39.667Z,3.03
2019-01-30T12:07:07.298Z,3.05
2019-01-30T12:09:34.917Z,2.76
2019-01-30T12:12:02.862Z,2.79
2019-01-30T12:14:30.830Z,2.70
2019-01-30T12:16:58.700Z,2.72
2019-01-30T12:19:26.668Z,2.81
2019-01-30T12:21:54.545Z,2.85
2019-01-30T12:24:22.504Z,2.77
2019-01-30T12:26:50.122Z,2.75
2019-01-30T12:29:18.036Z,2.76
2019-01-30T12:31:45.899Z,2.76
2019-01-30T12:34:13.872Z,2.69
2019-01-30T12:36:41.848Z,2.76
2019-01-30T12:39:10.019Z,2.73
2019-01-30T12:41:37.639Z,2.80
2019-01-30T12:44:05.624Z,2.77
2019-01-30T12:46:33.513Z,2.89
2019-01-30T12:49:01.158Z,3.02
2019-01-30T12:51:29.046Z,2.95
2019-01-30T12:53:57.024Z,2.91
2019-01-30T12:56:24.633Z,2.91
2019-01-30T12:58:52.544Z,2.91
2019-01-30T13:01:20.532Z,2.99
2019-01-30T13:03:48.154Z,2.96
2019-01-30T13:06:15.780Z,2.95
2019-01-30T13:08:43.399Z,3.03
2019-01-30T13:11:11.369Z,3.08
2019-01-30T13:13:38.980Z,3.16
2019-01-30T13:16:06.897Z,3.00
2019-01-30T13:18:34.871Z,3.12
2019-01-30T13:21:02.836Z,3.07
2019-01-30T13:23:30.453Z,2.96
2019-01-30T13:25:58.376Z,3.02
2019-01-30T13:28:25.978Z,3.06
2019-01-30T13:30:53.618Z,3.06
2019-01-30T13:33:21.563Z,3.01
2019-01-30T13:35:49.188Z,3.05
2019-01-30T13:38:16.803Z,2.96
2019-01-30T13:40:44.753Z,2.93
2019-01-30T13:43:12.360Z,2.93
2019-01-30T13:45:40.292Z,2.92
2019-01-30T13:48:08.279Z,2.93
2019-01-30T13:50:35.962Z,2.95
2019-01-30T13:53:04.014Z,2.94
2019-01-30T13:55:31.885Z,2.96
2019-01-30T13:58:02.058Z,2.96
2019-01-30T14:00:29.122Z,2.92
2019-01-30T14:02:57.113Z,2.83
2019-01-30T14:05:25.087Z,2.72
2019-01-30T14:07:52.960Z,2.57
2019-01-30T14:10:20.897Z,2.58
2019-01-30T14:12:48.793Z,2.49
2019-01-30T14:15:16.415Z,2.49
2019-01-30T14:17:44.009Z,2.43
2019-01-30T14:20:11.647Z,2.40
2019-01-30T14:22:39.266Z,2.34
2019-01-30T14:25:07.217Z,2.34
2019-01-30T14:27:35.167Z,2.30
2019-01-30T14:30:02.797Z,2.36
2019-01-30T14:32:30.411Z,2.36
2019-01-30T14:34:58.096Z,2.42
2019-01-30T14:37:26.014Z,2.41
2019-01-30T14:39:53.650Z,2.44
2019-01-30T14:42:21.568Z,2.40
2019-01-30T14:44:49.204Z,2.38
2019-01-30T14:47:17.092Z,2.34
2019-01-30T14:49:45.031Z,2.27
2019-01-30T14:52:12.652Z,2.22
2019-01-30T14:54:40.342Z,2.20
2019-01-30T14:57:07.966Z,2.15
2019-01-30T14:59:35.574Z,2.09
2019-01-30T15:02:03.209Z,2.03
2019-01-30T15:04:30.820Z,2.02
2019-01-30T15:06:58.787Z,1.98
2019-01-30T15:09:26.397Z,1.90
2019-01-30T15:11:54.047Z,1.94
2019-01-30T15:14:21.973Z,1.91
2019-01-30T15:16:49.952Z,1.86
2019-01-30T15:19:17.801Z,1.83
2019-01-30T15:21:45.471Z,1.82
2019-01-30T15:24:13.336Z,1.76
2019-01-30T15:26:41.300Z,1.77
2019-01-30T15:29:09.269Z,1.71
2019-01-30T15:31:37.238Z,1.70
2019-01-30T15:34:05.218Z,1.63
2019-01-30T15:36:32.834Z,1.61
2019-01-30T15:39:00.737Z,1.53
2019-01-30T15:41:28.390Z,1.58
2019-01-30T15:43:56.270Z,1.56
2019-01-30T15:46:24.240Z,1.62
2019-01-30T15:48:51.894Z,1.53
2019-01-30T15:51:19.523Z,1.49
2019-01-30T15:53:47.434Z,1.43
2019-01-30T15:56:15.394Z,1.46
2019-01-30T15:58:43.268Z,1.40
2019-01-30T16:01:11.236Z,1.43
2019-01-30T16:03:38.867Z,1.34
2019-01-30T16:06:06.764Z,1.35
2019-01-30T16:08:34.380Z,1.29
2019-01-30T16:11:02.300Z,1.36
2019-01-30T16:13:30.160Z,1.33
2019-01-30T16:15:58.140Z,1.29
2019-01-30T16:18:26.108Z,1.34
2019-01-30T16:20:54.076Z,1.26
2019-01-30T16:23:21.709Z,1.20
2019-01-30T16:25:49.327Z,1.24
2019-01-30T16:28:17.264Z,1.20
2019-01-30T16:30:44.887Z,1.15
2019-01-30T16:33:12.499Z,1.13
2019-01-30T16:35:40.461Z,1.08
2019-01-30T16:38:08.424Z,1.06
2019-01-30T16:40:36.040Z,1.14
2019-01-30T16:43:03.956Z,1.08
2019-01-30T16:45:31.589Z,1.11
2019-01-30T16:47:59.207Z,1.04
2019-01-30T16:50:27.258Z,1.06
2019-01-30T16:52:54.877Z,1.00
2019-01-30T16:55:22.773Z,0.97
2019-01-30T16:57:50.756Z,1.58
2019-01-30T17:00:18.393Z,1.57
2019-01-30T17:02:46.595Z,1.76
2019-01-30T17:05:14.594Z,1.93
2019-01-30T17:07:42.220Z,2.04
2019-01-30T17:10:10.205Z,1.84
2019-01-30T17:12:38.158Z,1.82
2019-01-30T17:15:06.136Z,1.93
2019-01-30T17:17:34.209Z,1.88
2019-01-30T17:20:02.186Z,1.71
2019-01-30T17:22:30.143Z,1.70
2019-01-30T17:24:57.779Z,1.63
2019-01-30T17:27:25.807Z,1.56
2019-01-30T17:29:53.915Z,1.50
2019-01-30T17:32:21.646Z,1.55
2019-01-30T17:34:51.911Z,1.74
2019-01-30T17:37:19.187Z,1.77
2019-01-30T17:39:47.159Z,1.67
2019-01-30T17:42:14.795Z,1.50
2019-01-30T17:44:42.689Z,1.73
2019-01-30T17:47:10.658Z,1.77
2019-01-30T17:49:38.288Z,1.69
2019-01-30T17:52:06.298Z,1.78
2019-01-30T17:54:34.370Z,1.79
2019-01-30T17:57:02.538Z,1.69
2019-01-30T17:59:30.506Z,1.63
2019-01-30T18:01:58.489Z,1.68
2019-01-30T18:04:26.442Z,1.59
2019-01-30T18:06:54.089Z,1.64
2019-01-30T18:09:22.190Z,1.67
2019-01-30T18:11:49.840Z,1.62
2019-01-30T18:14:17.818Z,1.67
2019-01-30T18:16:45.778Z,1.66
2019-01-30T18:19:13.760Z,1.61
2019-01-30T18:21:41.722Z,1.66
2019-01-30T18:24:09.371Z,1.67
2019-01-30T18:26:38.006Z,1.64
2019-01-30T18:29:06.034Z,1.51
2019-01-30T18:31:33.675Z,1.53
2019-01-30T18:34:01.570Z,1.53
2019-01-30T18:36:40.357Z,1.49
2019-01-30T18:38:58.841Z,1.41
2019-01-30T18:41:26.495Z,1.36
2019-01-30T18:43:54.480Z,1.42
2019-01-30T18:46:22.444Z,1.50
2019-01-30T18:48:50.076Z,1.42
2019-01-30T18:51:17.713Z,1.52
2019-01-30T18:53:45.360Z,1.35
2019-01-30T18:56:13.449Z,1.34
2019-01-30T18:58:41.366Z,1.30
2019-01-30T19:01:09.439Z,1.35
2019-01-30T19:03:37.078Z,1.49
2019-01-30T19:06:04.720Z,1.43
2019-01-30T19:08:32.376Z,1.55
2019-01-30T19:11:00.311Z,1.52
2019-01-30T19:13:28.273Z,1.50
2019-01-30T19:15:56.237Z,1.53
2019-01-30T19:18:24.203Z,1.51
2019-01-30T19:20:52.172Z,1.62
2019-01-30T19:23:20.140Z,1.51
2019-01-30T19:25:48.221Z,1.43
2019-01-30T19:28:16.516Z,1.42
2019-01-30T19:30:45.203Z,1.42
2019-01-30T19:33:13.258Z,1.48
2019-01-30T19:35:41.231Z,1.49
2019-01-30T19:38:09.193Z,1.55
2019-01-30T19:40:37.156Z,1.49
2019-01-30T19:43:04.800Z,1.48
2019-01-30T19:45:32.431Z,1.50
2019-01-30T19:48:00.363Z,1.47
2019-01-30T19:50:28.425Z,1.53
2019-01-30T19:52:56.390Z,1.59
2019-01-30T19:55:24.010Z,1.52
2019-01-30T19:57:51.653Z,1.53
2019-01-30T20:00:19.343Z,1.56
2019-01-30T20:02:47.241Z,1.55
2019-01-30T20:05:15.215Z,1.60
2019-01-30T20:07:42.847Z,1.56
2019-01-30T20:10:10.848Z,1.47
2019-01-30T20:12:38.478Z,1.42
2019-01-30T20:15:06.101Z,1.42
2019-01-30T20:17:33.801Z,1.49
2019-01-30T20:20:01.501Z,1.39
2019-01-30T20:22:29.463Z,1.34
2019-01-30T20:24:57.095Z,1.31
2019-01-30T20:27:24.720Z,1.39
2019-01-30T20:29:52.761Z,1.40
2019-01-30T20:32:20.732Z,1.30
2019-01-30T20:34:48.696Z,1.31
2019-01-30T20:37:25.897Z,1.27
2019-01-30T20:39:46.377Z,1.31
2019-01-30T20:42:14.003Z,1.33
2019-01-30T20:44:41.634Z,1.31
2019-01-30T20:47:09.606Z,1.28
2019-01-30T20:49:37.591Z,1.19
2019-01-30T20:52:05.234Z,1.18
2019-01-30T20:54:33.194Z,1.15
2019-01-30T20:57:00.902Z,1.12
2019-01-30T20:59:28.808Z,1.09
2019-01-30T21:01:56.777Z,1.09
2019-01-30T21:04:24.416Z,1.06
2019-01-30T21:06:52.401Z,1.01
2019-01-30T21:09:20.376Z,0.96
2019-01-30T21:11:48.344Z,0.97
2019-01-30T21:14:16.318Z,0.94
2019-01-30T21:16:43.952Z,0.89
2019-01-30T21:19:11.659Z,0.87
2019-01-30T21:21:39.306Z,0.87
2019-01-30T21:24:07.298Z,0.87
2019-01-30T21:26:35.348Z,0.77
2019-01-30T21:29:03.420Z,0.83
2019-01-30T21:31:31.385Z,0.82
2019-01-30T21:33:59.023Z,0.84
2019-01-30T21:36:27.044Z,0.83
2019-01-30T21:38:54.987Z,0.74
2019-01-30T21:41:22.617Z,0.74
2019-01-30T21:43:50.518Z,0.74
2019-01-30T21:46:18.487Z,0.76
2019-01-30T21:48:46.132Z,0.72
2019-01-30T21:51:14.026Z,0.78
2019-01-30T21:53:41.985Z,0.76
2019-01-30T21:56:10.049Z,0.77
2019-01-30T21:58:38.035Z,0.74
2019-01-30T22:01:05.851Z,0.73
2019-01-30T22:03:33.864Z,0.69
2019-01-30T22:06:01.510Z,0.69
2019-01-30T22:08:29.602Z,0.63
2019-01-30T22:10:57.233Z,0.68
2019-01-30T22:13:24.884Z,0.62
2019-01-30T22:15:52.524Z,0.58
2019-01-30T22:18:20.452Z,0.55
2019-01-30T22:20:48.424Z,0.51
2019-01-30T22:23:16.398Z,0.42
2019-01-30T22:25:44.364Z,0.45
2019-01-30T22:28:11.997Z,0.43
2019-01-30T22:30:39.651Z,0.48
2019-01-30T22:33:07.562Z,0.54
2019-01-30T22:35:35.238Z,0.51
2019-01-30T22:38:11.987Z,0.44
2019-01-30T22:40:32.902Z,0.48
2019-01-30T22:43:00.869Z,0.46
2019-01-30T22:45:28.839Z,0.52
2019-01-30T22:47:56.466Z,0.53
2019-01-30T22:50:24.470Z,0.52
2019-01-30T22:52:52.126Z,0.56
2019-01-30T22:55:19.816Z,0.46
2019-01-30T22:57:50.740Z,0.48
2019-01-30T23:00:17.479Z,0.55
2019-01-30T23:02:45.447Z,0.58
2019-01-30T23:05:13.096Z,0.53
2019-01-30T23:07:41.218Z,0.53
2019-01-30T23:10:09.157Z,0.50
2019-01-30T23:12:37.122Z,0.43
2019-01-30T23:15:05.090Z,0.50
2019-01-30T23:17:32.745Z,0.51
2019-01-30T23:20:00.715Z,0.56
2019-01-30T23:22:28.356Z,0.48
2019-01-30T23:24:56.359Z,0.52
2019-01-30T23:27:24.319Z,0.50
2019-01-30T23:29:52.288Z,0.50
2019-01-30T23:32:20.267Z,0.52
2019-01-30T23:34:48.305Z,0.51
2019-01-30T23:37:16.296Z,0.44
2019-01-30T23:39:44.273Z,0.49
2019-01-30T23:42:12.238Z,0.51
2019-01-30T23:44:39.894Z,0.55
2019-01-30T23:47:07.972Z,0.55
2019-01-30T23:49:35.946Z,0.50
2019-01-30T23:52:03.589Z,0.53
2019-01-30T23:54:31.238Z,0.49
2019-01-30T23:56:59.267Z,0.49
2019-01-30T23:59:27.213Z,0.49
